Tiempo atmosférico en la estación meteorológica de Becerreá, Lugo (1080 m.)



Fecha
DESCASC
Temp. máxima en grados centígrados (hora)
DESCASC
Temp. mínima en grados centígrados (hora)
DESCASC
Temp. media en grados centígrados
DESCASC
Racha de viento máxima en m/sg (hora)
DESCASC
Velocidad máxima media en intervalos de 10 minutos(hora)
DESCASC
Precipitaciones diarias en mm
DESCASC
Precipitaciones de 00:00 a 06:00 en mm
DESCASC
Precipitaciones de 06:00 a 12:00 en mm
DESCASC
Precipitaciones de 12:00 a 18:00 en mm
DESCASC
Precipitaciones de 18:00 a 24:00 en mm
DESCASC
22-11-2020 12.9 (12:40) 6.9 (23:50) 9.9 5.28 (15:40) 3.33 (15:50) 0 0 0 0 0
21-11-2020 16 (16:20) 8.9 (02:00) 12.4 8.33 (11:50) 5 (10:10) 0 0 0 0 0
20-11-2020 11 (22:10) 3.6 (09:00) 7.3 6.94 (21:30) 4.44 (21:50) 0 0 0 0 0
19-11-2020 13 (14:10) 5.7 (00:00) 9.3 5.56 (03:40) 3.06 (00:20) 0 0 0 0 0
18-11-2020 16.6 (13:30) 10.4 (00:00) 13.5 10.28 (11:50) 5.83 (04:30) 0 0 0 0 0
17-11-2020 17.3 (16:30) 9.7 (00:00) 13.5 9.44 (22:30) 4.72 (22:20) 0 0 0 0 0
16-11-2020 12.2 (16:40) 4 (00:00) 8.1 3.61 (23:50) 2.22 (15:00) 0 0 0 0 0
15-11-2020 12.3 (13:20) 6 (00:00) 9.2 15.83 (06:50) 5.83 (04:40) 16 0.4 4.6 8.6 2.4
14-11-2020 12.6 (14:40) 7.8 (00:00) 10.2 11.94 (23:30) 5.56 (23:30) 0 0 0 0 0
13-11-2020 13.6 (12:30) 8 (00:00) 10.8 7.78 (04:40) 4.17 (07:10) 0 0 0 0 0
12-11-2020 14.4 (14:20) 8.4 (00:00) 11.4 7.78 (00:10) 3.61 (00:10) 0.8 0.8 0 0 0
11-11-2020 10.3 (11:30) 6.1 (00:00) 8.2 13.89 (11:50) 5.83 (14:50) 0 0 0 0 0
10-11-2020 11.4 (14:10) 4.2 (00:00) 7.8 6.94 (22:10) 3.89 (22:10) 0 0 0 0 0
09-11-2020 10.3 (15:10) 6.9 (00:00) 8.6 11.11 (05:30) 5 (01:50) 6.2 0 3.8 2.4 0
08-11-2020 12.4 (13:50) 8 (00:00) 10.2 12.5 (09:50) 5.28 (20:30) 2.4 0 0.2 0.2 2
07-11-2020 11.8 (12:50) 8.1 (00:00) 10 10.56 (19:10) 5.28 (07:10) 1 0 0 0.6 0.4
06-11-2020 12.6 (14:50) 8.1 (00:00) 10.4 14.72 (14:30) 6.67 (07:40) 9.8 0 0 0 9.8
05-11-2020 9.4 (20:40) 2.1 (00:00) 5.7 13.06 (21:50) 4.72 (21:50) 0 0 0 0 0
04-11-2020 5.3 (13:00) 0.4 (00:00) 2.9 13.33 (19:10) 5.56 (20:00) 0 0 0 0 0
03-11-2020 5.7 (14:10) 1.2 (00:00) 3.4 7.78 (19:30) 3.89 (00:10) 0.2 0 0.2 0 0
02-11-2020 13.1 (11:20) 4 (00:00) 8.6 13.61 (11:20) 6.11 (13:20) 10.4 1.4 3.2 5.6 0.2
01-11-2020 15 (13:00) 12.6 (00:00) 13.8 13.33 (21:40) 5.83 (04:40) 0 0 0 0 0
31-10-2020 14.4 (15:20) 10.8 (00:00) 12.6 13.06 (09:50) 6.39 (09:20) 0 0 0 0 0
30-10-2020 15.8 (13:50) 6.9 (00:00) 11.4 8.33 (21:50) 4.72 (22:00) 0 0 0 0 0
29-10-2020 11.8 (11:40) 5.2 (00:00) 8.5 7.22 (14:40) 5 (15:00) 0 0 0 0 0
28-10-2020 9.7 (15:00) 5.9 (00:00) 7.8 10.83 (00:30) 3.61 (11:50) 2.4 2.4 0 0 0
27-10-2020 10.3 (19:00) 4.4 (00:00) 7.4 18.06 (17:20) 6.39 (16:10) 4.4 0.2 0.2 0.2 3.8
26-10-2020 5.9 (14:20) 1.5 (00:00) 3.7 9.44 (16:30) 3.89 (16:30) 4.2 1.4 0.8 1 1

Gráficas

Temp. máximas Temp. mínimas Temp. medias Precipitaciones Rachas de viento máximas Velocidades máximas media en intervalos de 10 minutos

Datos horarios

Fecha y hora oficial Temperatura (ºC) Velocidad del viento (km/h) Dirección del viento Racha (km/h) Dirección de racha Precipitación (mm) Presión (hPa) Tendencia (hPa) Humedad (%)
2020-11-24 23:00:00 8.2 12 Sur 30 Sudeste 0 -- -- 83
2020-11-24 22:00:00 8.3 10 Sur 26 Sur 0 -- -- 81
2020-11-24 21:00:00 8.1 13 Sur 33 Sur 0 -- -- 81
2020-11-24 20:00:00 8.1 16 Sur 32 Sur 0 -- -- 81
2020-11-24 19:00:00 8.2 12 Sur 31 Sur 0 -- -- 78
2020-11-24 18:00:00 8.5 14 Sur 32 Sur 0 -- -- 77
2020-11-24 17:00:00 9.5 12 Sur 31 Sur 0 -- -- 71
2020-11-24 16:00:00 9.2 14 Sur 30 Sudoeste 0 -- -- 77
2020-11-24 15:00:00 9.9 11 Sur 30 Sudoeste 0 -- -- 76
2020-11-24 14:00:00 10.1 9 Sur 30 Sudoeste 0 -- -- 75
2020-11-24 13:00:00 9.1 10 Sur 32 Sur 0 -- -- 76
2020-11-24 12:00:00 7.6 14 Sur 33 Sur 0 -- -- 78
2020-11-24 11:00:00 6.9 19 Sur 39 Sur 0 -- -- 82
2020-11-24 10:00:00 6.2 10 Sudoeste 29 Sur 0 -- -- 90
2020-11-24 09:00:00 6 13 Sudoeste 28 Sudoeste 0 -- -- 78
2020-11-24 08:00:00 7.1 9 Sudoeste 20 Sudoeste 0 -- -- 70
2020-11-24 07:00:00 7.8 6 Sudoeste 22 Sudoeste 0 -- -- 66
2020-11-24 06:00:00 8.4 12 Sur 25 Sur 0 -- -- 64
2020-11-24 05:00:00 8.8 13 Sur 26 Sur 0 -- -- 60
2020-11-24 04:00:00 9.2 12 Sur 23 Sudoeste 0 -- -- 52
2020-11-24 03:00:00 9.2 12 Sur 24 Sur 0 -- -- 51
2020-11-24 02:00:00 9.3 8 Sur 16 Sur 0 -- -- 59
2020-11-24 01:00:00 9.8 8 Sur 13 Sur 0 -- -- 62
2020-11-24 00:00:00 10 11 Sur 17 Sudeste 0 -- -- 65
2020-11-23 23:00:00 10.4 9 Sudeste 15 Sudeste 0 -- -- 62
2020-11-23 22:00:00 10.3 8 Sudeste 12 Sur 0 -- -- 61
2020-11-23 21:00:00 8.4 5 Sur 6 Sudeste 0 -- -- 68
2020-11-23 20:00:00 8.2 2 Sur 3 Sur 0 -- -- 69
2020-11-23 19:00:00 8.8 0 Calma 5 Oeste 0 -- -- 60
2020-11-23 18:00:00 9.4 3 Oeste 8 Oeste 0 -- -- 60
2020-11-23 17:00:00 12 6 Oeste 10 Oeste 0 -- -- 64
2020-11-23 16:00:00 12.5 5 Oeste 9 Oeste 0 -- -- 53
2020-11-23 15:00:00 12.8 4 Oeste 12 Oeste 0 -- -- 50
2020-11-23 14:00:00 12.9 6 Oeste 12 Oeste 0 -- -- 58
2020-11-23 13:00:00 13.5 3 Noroeste 12 Sur 0 -- -- 57
2020-11-23 12:00:00 14 4 Sur 12 Sur 0 -- -- 51
2020-11-23 11:00:00 12.7 7 Sur 17 Sudeste 0 -- -- 55
2020-11-23 10:00:00 11.3 10 Sudeste 21 Sudeste 0 -- -- 57
2020-11-23 09:00:00 8.9 9 Sudeste 14 Sudeste 0 -- -- 65
2020-11-23 08:00:00 7.4 0 Calma 5 Sudeste 0 -- -- 69
2020-11-23 07:00:00 7.2 3 Sudeste 6 Sudeste 0 -- -- 73
2020-11-23 06:00:00 7.4 2 Sudeste 6 Sudeste 0 -- -- 71
2020-11-23 05:00:00 7.8 4 Sudeste 12 Sudeste 0 -- -- 72
2020-11-23 04:00:00 6.2 4 Este 7 Este 0 -- -- 82
2020-11-23 03:00:00 6.3 4 Este 9 Este 0 -- -- 82
2020-11-23 02:00:00 6.3 3 Este 5 Este 0 -- -- 79
2020-11-23 01:00:00 6.8 2 Este 4 Este 0 -- -- 77
2020-11-23 00:00:00 7 2 Nordeste 6 Este 0 -- -- 77
2020-11-22 23:00:00 7.2 3 Este 9 Este 0 -- -- 76
2020-11-22 22:00:00 7.2 2 Este 6 Noroeste 0 -- -- 75
2020-11-22 21:00:00 8.3 4 Norte 8 Noroeste 0 -- -- 65
2020-11-22 20:00:00 8.1 6 Oeste 15 Oeste 0 -- -- 67
2020-11-22 19:00:00 9 11 Oeste 14 Oeste 0 -- -- 65
2020-11-22 18:00:00 9.5 10 Oeste 17 Sudoeste 0 -- -- 70
2020-11-22 17:00:00 11.2 12 Oeste 18 Oeste 0 -- -- 65
2020-11-22 16:00:00 11.9 12 Oeste 19 Sudoeste 0 -- -- 59
2020-11-22 15:00:00 12.4 10 Oeste 17 Oeste 0 -- -- 58
2020-11-22 14:00:00 12.7 6 Oeste 11 Oeste 0 -- -- 54
2020-11-22 13:00:00 12.9 3 Sudoeste 8 Oeste 0 -- -- 53
2020-11-22 12:00:00 11.6 5 Sudoeste 11 Sudoeste 0 -- -- 53
2020-11-22 11:00:00 10.5 8 Oeste 13 Oeste 0 -- -- 54
2020-11-22 10:00:00 9.6 9 Oeste 13 Sudoeste 0 -- -- 55
2020-11-22 09:00:00 8.7 9 Sudoeste 14 Sudoeste 0 -- -- 58
2020-11-22 08:00:00 9.2 8 Sudoeste 14 Sudoeste 0 -- -- 55
2020-11-22 07:00:00 8.9 4 Sudoeste 11 Sur 0 -- -- 59
2020-11-22 06:00:00 8.8 7 Sudoeste 12 Sudoeste 0 -- -- 61
2020-11-22 05:00:00 9.3 8 Oeste 12 Oeste 0 -- -- 61
2020-11-22 04:00:00 9.4 6 Sudoeste 9 Sudoeste 0 -- -- 60
2020-11-22 03:00:00 9.3 3 Sudoeste 6 Sur 0 -- -- 59
2020-11-22 02:00:00 10.2 6 Sur 10 Sur 0 -- -- 58
2020-11-22 01:00:00 10.2 7 Sudoeste 15 Sudoeste 0 -- -- 57
2020-11-22 00:00:00 10.6 7 Sudoeste 11 Sudoeste 0 -- -- 57
2020-11-21 23:00:00 10.4 5 Sudoeste 8 Sudoeste 0 -- -- 63
2020-11-21 22:00:00 9.9 3 Oeste 8 Oeste 0 -- -- 65
2020-11-21 21:00:00 9.9 5 Oeste 12 Oeste 0 -- -- 66
2020-11-21 20:00:00 10.5 10 Sudoeste 13 Sudoeste 0 -- -- 67
2020-11-21 19:00:00 10.1 12 Sudoeste 15 Sudoeste 0 -- -- 76
2020-11-21 18:00:00 11.7 2 Sudeste 8 Sur 0 -- -- 64
2020-11-21 17:00:00 15.3 4 Sudeste 10 Sudeste 0 -- -- 49
2020-11-21 16:00:00 15.7 6 Sudeste 22 Sudeste 0 -- -- 45
2020-11-21 15:00:00 15.2 10 Sudeste 24 Sudeste 0 -- -- 47
2020-11-21 14:00:00 15.9 9 Sudeste 26 Sudeste 0 -- -- 46
2020-11-21 13:00:00 15.3 12 Sudeste 27 Sudeste 0 -- -- 46
2020-11-21 12:00:00 14.5 13 Sudeste 30 Sudeste 0 -- -- 49
2020-11-21 11:00:00 13.3 14 Sudeste 28 Sudeste 0 -- -- 48
2020-11-21 10:00:00 12.1 17 Sur 21 Sur 0 -- -- 51
2020-11-21 09:00:00 11.9 12 Sudeste 22 Sudeste 0 -- -- 49
2020-11-21 08:00:00 9.6 8 Sudeste 21 Sudeste 0 -- -- 58
2020-11-21 07:00:00 10.7 14 Sudeste 24 Sudeste 0 -- -- 55
2020-11-21 06:00:00 10.7 15 Sudeste 25 Sudeste 0 -- -- 56
2020-11-21 05:00:00 11.5 12 Sudeste 21 Sudeste 0 -- -- 53
2020-11-21 04:00:00 10.6 9 Sudeste 17 Sudeste 0 -- -- 58
2020-11-21 03:00:00 10.4 10 Sudeste 17 Sudeste 0 -- -- 60
2020-11-21 02:00:00 8.9 8 Sudeste 19 Sudeste 0 -- -- 75
2020-11-21 01:00:00 9.9 13 Sudeste 23 Sudeste 0 -- -- 68
2020-11-21 00:00:00 10.7 15 Sudeste 24 Sudeste 0 -- -- 63
2020-11-20 23:00:00 10.6 14 Sudeste 24 Sudeste 0 -- -- 64
2020-11-20 22:00:00 10.9 13 Sudeste 25 Sudeste 0 -- -- 63
2020-11-20 21:00:00 7.4 10 Sudeste 16 Sudeste 0 -- -- 90
2020-11-20 20:00:00 6.8 5 Este 10 Este 0 -- -- 88
2020-11-20 19:00:00 7.1 4 Este 10 Este 0 -- -- 88
2020-11-20 18:00:00 7.8 5 Este 13 Nordeste 0 -- -- 85
2020-11-20 17:00:00 8.7 6 Este 22 Nordeste 0 -- -- 82
2020-11-20 16:00:00 9.8 3 Este 16 Nordeste 0 -- -- 75
2020-11-20 15:00:00 9.8 4 Este 18 Nordeste 0 -- -- 68
2020-11-20 14:00:00 9.5 5 Este 15 Este 0 -- -- 65
2020-11-20 13:00:00 9.1 5 Este 12 Este 0 -- -- 70
2020-11-20 12:00:00 10.1 5 Este 9 Este 0 -- -- 80
2020-11-20 11:00:00 8.7 3 Este 12 Este 0 -- -- 100
2020-11-20 10:00:00 6.2 5 Este 22 Sudeste 0 -- -- 100
2020-11-20 09:00:00 3.6 9 Sudeste 19 Sudeste 0 -- -- 100
2020-11-20 08:00:00 4 5 Este 13 Este 0 -- -- 100
2020-11-20 07:00:00 4.1 6 Este 15 Sudeste 0 -- -- 100
2020-11-20 06:00:00 4.5 6 Este 12 Sudeste 0 -- -- 100
2020-11-20 05:00:00 4.8 7 Este 14 Sudeste 0 -- -- 100
2020-11-20 04:00:00 5.2 4 Sudeste 18 Sudeste 0 -- -- 100
2020-11-20 03:00:00 5.8 13 Sudeste 19 Sudeste 0 -- -- 100
2020-11-20 02:00:00 5.2 5 Este 13 Este 0 -- -- 100
2020-11-20 01:00:00 5.5 7 Este 15 Este 0 -- -- 100
2020-11-20 00:00:00 5.7 7 Este 15 Sudeste 0 -- -- 100
2020-11-19 23:00:00 6.2 9 Este 16 Este 0 -- -- 100
2020-11-19 22:00:00 7.2 6 Este 10 Nordeste 0 -- -- 100
2020-11-19 21:00:00 7.4 6 Este 13 Nordeste 0 -- -- 100
2020-11-19 20:00:00 7.8 7 Este 12 Este 0 -- -- 100
2020-11-19 19:00:00 8.1 6 Este 15 Este 0 -- -- 100
2020-11-19 18:00:00 8.5 6 Nordeste 13 Norte 0 -- -- 100
2020-11-19 17:00:00 9.2 8 Norte 16 Norte 0 -- -- 98
2020-11-19 16:00:00 11.5 3 Norte 5 Norte 0 -- -- 93
2020-11-19 15:00:00 12.2 4 Norte 17 Oeste 0 -- -- 90
2020-11-19 14:00:00 12.9 6 Oeste 12 Oeste 0 -- -- 90
2020-11-19 13:00:00 11.1 2 Este 9 Este 0 -- -- 100
2020-11-19 12:00:00 9.5 5 Este 10 Este 0 -- -- 100
2020-11-19 11:00:00 9.9 3 Este 13 Sudeste 0 -- -- 100
2020-11-19 10:00:00 8.7 7 Este 19 Este 0 -- -- 100
2020-11-19 09:00:00 8.4 6 Este 19 Este 0 -- -- 100
2020-11-19 08:00:00 8.7 6 Este 15 Nordeste 0 -- -- 100
2020-11-19 07:00:00 8.9 6 Nordeste 14 Nordeste 0 -- -- 100
2020-11-19 06:00:00 9.1 8 Este 14 Este 0 -- -- 100
2020-11-19 05:00:00 9.2 6 Este 15 Este 0 -- -- 100
2020-11-19 04:00:00 9.3 6 Este 20 Nordeste 0 -- -- 100
2020-11-19 03:00:00 9.4 5 Este 10 Norte 0 -- -- 100
2020-11-19 02:00:00 9.9 6 Norte 19 Noroeste 0 -- -- 98
2020-11-19 01:00:00 11 3 Oeste 16 Sudeste 0 -- -- 92
2020-11-19 00:00:00 10.9 10 Sudeste 19 Sudeste 0 -- -- 97
2020-11-18 23:00:00 10.7 4 Nordeste 17 Noroeste 0 -- -- 94
2020-11-18 22:00:00 11.5 8 Oeste 15 Noroeste 0 -- -- 93
2020-11-18 21:00:00 12 6 Noroeste 22 Oeste 0 -- -- 96
2020-11-18 20:00:00 12.8 10 Oeste 19 Noroeste 0 -- -- 88
2020-11-18 19:00:00 13.2 8 Oeste 13 Sudoeste 0 -- -- 83
2020-11-18 18:00:00 13.8 9 Sudoeste 19 Sudoeste 0 -- -- 77
2020-11-18 17:00:00 14.6 9 Oeste 18 Oeste 0 -- -- 76
2020-11-18 16:00:00 16 8 Sudoeste 24 Sudoeste 0 -- -- 71
2020-11-18 15:00:00 15.9 9 Sudoeste 23 Oeste 0 -- -- 71
2020-11-18 14:00:00 16.5 7 Sudoeste 22 Noroeste 0 -- -- 68
2020-11-18 13:00:00 16.1 9 Sudoeste 26 Sur 0 -- -- 69
2020-11-18 12:00:00 15.3 12 Sur 37 Sudoeste 0 -- -- 71
2020-11-18 11:00:00 14.4 7 Sur 34 Sur 0 -- -- 77
2020-11-18 10:00:00 12.9 10 Sur 26 Sudeste 0 -- -- 83
2020-11-18 09:00:00 12.1 10 Sur 31 Sudoeste 0 -- -- 87
2020-11-18 08:00:00 12 10 Sur 27 Sudoeste 0 -- -- 88
2020-11-18 07:00:00 12.4 12 Sur 30 Sudoeste 0 -- -- 88
2020-11-18 06:00:00 12.5 11 Sur 27 Sur 0 -- -- 88
2020-11-18 05:00:00 12.5 16 Sur 37 Sudoeste 0 -- -- 89
2020-11-18 04:00:00 12.6 14 Sur 34 Sur 0 -- -- 88
2020-11-18 03:00:00 13.1 18 Sur 36 Sur 0 -- -- 85
2020-11-18 02:00:00 13.4 15 Sur 34 Sur 0 -- -- 80
2020-11-18 01:00:00 13.5 14 Sur 30 Sudoeste 0 -- -- 74
2020-11-18 00:00:00 13.4 12 Sur 24 Sur 0 -- -- 71
2020-11-17 23:00:00 13.4 10 Sur 34 Sur 0 -- -- 64
2020-11-17 22:00:00 13.8 14 Sur 28 Sur 0 -- -- 60
2020-11-17 21:00:00 13.6 12 Sur 30 Sur 0 -- -- 60
2020-11-17 20:00:00 13.6 11 Sur 18 Sur 0 -- -- 60
2020-11-17 19:00:00 14 10 Sudeste 18 Sudeste 0 -- -- 59
2020-11-17 18:00:00 15.2 8 Sur 15 Sudeste 0 -- -- 54
2020-11-17 17:00:00 16.8 9 Sur 18 Sudeste 0 -- -- 48
2020-11-17 16:00:00 17.2 7 Sudeste 22 Sur 0 -- -- 47
2020-11-17 15:00:00 16.4 4 Sudeste 14 Sur 0 -- -- 53
2020-11-17 14:00:00 16.5 7 Sudeste 18 Sudeste 0 -- -- 52
2020-11-17 13:00:00 16.2 6 Sudeste 18 Sudeste 0 -- -- 58
2020-11-17 12:00:00 15.8 10 Sudeste 22 Sudeste 0 -- -- 55
2020-11-17 11:00:00 14.4 12 Sudeste 23 Sudeste 0 -- -- 59
2020-11-17 10:00:00 13.2 14 Sudeste 23 Sudeste 0 -- -- 55
2020-11-17 09:00:00 12.9 11 Sudeste 18 Sur 0 -- -- 54
2020-11-17 08:00:00 12.8 13 Sur 19 Sur 0 -- -- 52
2020-11-17 07:00:00 12.6 14 Sur 19 Sudeste 0 -- -- 52
2020-11-17 06:00:00 12.3 13 Sur 18 Sur 0 -- -- 51
2020-11-17 05:00:00 12.3 10 Sur 15 Sur 0 -- -- 47
2020-11-17 04:00:00 11.8 9 Sudeste 15 Sudeste 0 -- -- 42
2020-11-17 03:00:00 11.7 8 Sudeste 15 Sudeste 0 -- -- 41
2020-11-17 02:00:00 10.1 6 Sur 10 Sur 0 -- -- 47
2020-11-17 01:00:00 10.3 6 Sur 10 Sur 0 -- -- 43
2020-11-17 00:00:00 11.2 7 Sur 13 Sur 0 -- -- 39
2020-11-16 23:00:00 10 8 Sudoeste 13 Sudoeste 0 -- -- 47
2020-11-16 22:00:00 9.2 5 Sur 10 Sur 0 -- -- 54
2020-11-16 21:00:00 9.2 5 Sudoeste 8 Sudeste 0 -- -- 63
2020-11-16 20:00:00 9.6 6 Sur 11 Sur 0 -- -- 84
2020-11-16 19:00:00 8.7 3 Sudoeste 12 Sudeste 0 -- -- 95
2020-11-16 18:00:00 10.1 3 Sudeste 10 Sur 0 -- -- 91
2020-11-16 17:00:00 12 6 Sur 9 Sur 0 -- -- 81
2020-11-16 16:00:00 11.2 5 Sudoeste 10 Sudoeste 0 -- -- 93
2020-11-16 15:00:00 10.4 8 Oeste 13 Oeste 0 -- -- 95
2020-11-16 14:00:00 10.8 2 Nordeste 9 Oeste 0 -- -- 96
2020-11-16 13:00:00 9.9 3 Sudeste 9 Oeste 0 -- -- 98
2020-11-16 12:00:00 8.4 2 Sudeste 10 Sudeste 0 -- -- 100
2020-11-16 11:00:00 6.4 4 Este 12 Sudeste 0 -- -- 100
2020-11-16 10:00:00 6.1 3 Este 7 Este 0 -- -- 100
2020-11-16 09:00:00 4.7 0 Calma 4 Sudeste 0 -- -- 100
2020-11-16 08:00:00 4.1 0 Calma 4 Este 0 -- -- 100
2020-11-16 07:00:00 4.4 0 Calma 6 Sudeste 0 -- -- 100
2020-11-16 06:00:00 5 5 Sudoeste 8 Oeste 0 -- -- 100
2020-11-16 05:00:00 5.6 5 Oeste 8 Oeste 0 -- -- 100
2020-11-16 04:00:00 5.8 0 Calma 7 Sudoeste 0 -- -- 100
2020-11-16 03:00:00 5.9 3 Oeste 10 Noroeste 0 -- -- 100
2020-11-16 02:00:00 6 3 Sudoeste 8 Sudoeste 0 -- -- 100
2020-11-16 01:00:00 6 2 Sudoeste 6 Oeste 0 -- -- 100
2020-11-16 00:00:00 6 4 Oeste 18 Oeste 0 -- -- 100
2020-11-15 23:00:00 6.2 6 Oeste 17 Oeste 0 -- -- 100
2020-11-15 22:00:00 6.6 9 Oeste 18 Oeste 0.6 -- -- 100
2020-11-15 21:00:00 7.7 7 Oeste 22 Sudoeste 1 -- -- 100
2020-11-15 20:00:00 8.2 5 Sudoeste 22 Sudoeste 0.6 -- -- 100
2020-11-15 19:00:00 8.4 5 Sudoeste 28 Oeste 0.2 -- -- 100
2020-11-15 18:00:00 8.5 8 Sudoeste 28 Sudoeste 0 -- -- 100
2020-11-15 17:00:00 9 9 Sudoeste 28 Oeste 0.4 -- -- 100
2020-11-15 16:00:00 9.2 7 Sudoeste 29 Oeste 3.8 -- -- 100
2020-11-15 15:00:00 9.7 12 Oeste 49 Sudoeste 2.8 -- -- 100
2020-11-15 14:00:00 11.6 13 Sudoeste 41 Sudoeste 1.6 -- -- 98
2020-11-15 13:00:00 12 17 Sudoeste 47 Sudoeste 0 -- -- 98
2020-11-15 12:00:00 11.9 17 Sudoeste 51 Sudoeste 0 -- -- 98
2020-11-15 11:00:00 11.6 16 Sudoeste 54 Oeste 0 -- -- 100
2020-11-15 10:00:00 11.6 18 Sudoeste 44 Sudoeste 1.4 -- -- 100
2020-11-15 09:00:00 11.4 15 Sudoeste 44 Sudoeste 2.8 -- -- 100
2020-11-15 08:00:00 11.4 17 Sur 44 Sudoeste 0.4 -- -- 100
2020-11-15 07:00:00 11.5 18 Sudoeste 57 Sur 0 -- -- 100
2020-11-15 06:00:00 11.5 15 Sur 44 Sur 0.2 -- -- 99
2020-11-15 05:00:00 11.3 17 Sur 50 Sur 0 -- -- 99
2020-11-15 04:00:00 11.5 16 Sur 46 Sur 0 -- -- 96
2020-11-15 03:00:00 11.5 17 Sur 48 Sur 0 -- -- 94
2020-11-15 02:00:00 11.4 15 Sur 45 Sudoeste 0 -- -- 95
2020-11-15 01:00:00 11 17 Sur 49 Sur 0.2 -- -- 98
2020-11-15 00:00:00 10.9 18 Sur 43 Sur 0 -- -- 99
2020-11-14 23:00:00 10.5 17 Sur 37 Sudoeste 0 -- -- 98
2020-11-14 22:00:00 10.6 18 Sur 35 Sudoeste 0 -- -- 94
2020-11-14 21:00:00 11.2 14 Sur 36 Sur 0 -- -- 89
2020-11-14 20:00:00 11.4 11 Sur 37 Sur 0 -- -- 89
2020-11-14 19:00:00 11.4 15 Sur 34 Sudoeste 0 -- -- 88
2020-11-14 18:00:00 11.6 16 Sur 32 Sur 0 -- -- 87
2020-11-14 17:00:00 12 15 Sur 30 Sur 0 -- -- 85
2020-11-14 16:00:00 12.4 14 Sur 39 Sur 0 -- -- 83
2020-11-14 15:00:00 12.5 8 Sur 28 Sur 0 -- -- 80
2020-11-14 14:00:00 12.1 17 Sur 35 Sur 0 -- -- 79
2020-11-14 13:00:00 12.2 14 Sur 38 Sur 0 -- -- 76
2020-11-14 12:00:00 12.1 6 Sudeste 32 Sur 0 -- -- 76
2020-11-14 11:00:00 10.7 15 Sur 38 Sur 0 -- -- 77
2020-11-14 10:00:00 10.7 13 Sudeste 33 Sudoeste 0 -- -- 77
2020-11-14 09:00:00 9.4 13 Sur 34 Sudeste 0 -- -- 81
2020-11-14 08:00:00 8.6 15 Sudeste 32 Sudeste 0 -- -- 82
2020-11-14 07:00:00 8.6 10 Sudeste 31 Sur 0 -- -- 77
2020-11-14 06:00:00 9.3 13 Sur 32 Sudoeste 0 -- -- 71
2020-11-14 05:00:00 8 9 Sudeste 21 Sudeste 0 -- -- 79
2020-11-14 04:00:00 7.9 6 Sudeste 16 Sudeste 0 -- -- 80
2020-11-14 03:00:00 8.2 9 Sudeste 19 Sudeste 0 -- -- 82
2020-11-14 02:00:00 8.9 10 Sur 19 Sur 0 -- -- 79
2020-11-14 01:00:00 8.8 10 Sur 17 Sur 0 -- -- 81
2020-11-14 00:00:00 8.7 8 Sur 17 Sur 0 -- -- 81
2020-11-13 23:00:00 8.5 10 Sur 16 Sudeste 0 -- -- 79
2020-11-13 22:00:00 9 6 Sudeste 19 Sur 0 -- -- 76
2020-11-13 21:00:00 8.7 5 Sudeste 16 Sudeste 0 -- -- 80
2020-11-13 20:00:00 9.6 4 Sur 15 Sur 0 -- -- 80
2020-11-13 19:00:00 10 8 Sur 19 Oeste 0 -- -- 81
2020-11-13 18:00:00 10.9 6 Sudoeste 24 Oeste 0 -- -- 81
2020-11-13 17:00:00 12.4 11 Oeste 23 Oeste 0 -- -- 76
2020-11-13 16:00:00 13.3 7 Sudoeste 21 Oeste 0 -- -- 72
2020-11-13 15:00:00 13.2 6 Oeste 21 Sudoeste 0 -- -- 70
2020-11-13 14:00:00 13.1 10 Oeste 18 Oeste 0 -- -- 74
2020-11-13 13:00:00 13.5 6 Oeste 13 Oeste 0 -- -- 68
2020-11-13 12:00:00 13 3 Este 9 Sudoeste 0 -- -- 69
2020-11-13 11:00:00 11.1 4 Sur 13 Sudeste 0 -- -- 77
2020-11-13 10:00:00 9.2 2 Este 15 Sur 0 -- -- 82
2020-11-13 09:00:00 8 6 Sur 21 Sur 0 -- -- 83
2020-11-13 08:00:00 8.4 9 Sur 27 Sur 0 -- -- 81
2020-11-13 07:00:00 8.7 14 Sur 27 Sudoeste 0 -- -- 77
2020-11-13 06:00:00 9 12 Sur 22 Sur 0 -- -- 74
2020-11-13 05:00:00 9.1 12 Sur 28 Sur 0 -- -- 73
2020-11-13 04:00:00 9.2 8 Sur 22 Sur 0 -- -- 74
2020-11-13 03:00:00 9.5 13 Sur 22 Sur 0 -- -- 70
2020-11-13 02:00:00 9.9 10 Sur 22 Sur 0 -- -- 64
2020-11-13 01:00:00 10.1 8 Sur 21 Sur 0 -- -- 61
2020-11-13 00:00:00 9.8 7 Sur 10 Sudoeste 0 -- -- 72
2020-11-12 23:00:00 9.9 5 Sudoeste 12 Sur 0 -- -- 74
2020-11-12 22:00:00 10 7 Sudeste 17 Sudoeste 0 -- -- 76
2020-11-12 21:00:00 10 11 Sudoeste 22 Sudoeste 0 -- -- 83
2020-11-12 20:00:00 10.2 9 Sudoeste 19 Sudoeste 0 -- -- 81
2020-11-12 19:00:00 10.7 8 Sudoeste 21 Sur 0 -- -- 76
2020-11-12 18:00:00 11 10 Sudoeste 16 Oeste 0 -- -- 76
2020-11-12 17:00:00 12.9 8 Oeste 16 Oeste 0 -- -- 71
2020-11-12 16:00:00 14 7 Sudoeste 22 Sudoeste 0 -- -- 63
2020-11-12 15:00:00 13.5 11 Oeste 22 Oeste 0 -- -- 71
2020-11-12 14:00:00 14.2 8 Sudoeste 15 Oeste 0 -- -- 67
2020-11-12 13:00:00 14.2 6 Sudoeste 17 Sur 0 -- -- 67
2020-11-12 12:00:00 13 4 Sur 14 Sur 0 -- -- 76
2020-11-12 11:00:00 11.3 6 Sur 27 Sur 0 -- -- 79
2020-11-12 10:00:00 10 11 Sur 27 Sudoeste 0 -- -- 80
2020-11-12 09:00:00 8.9 9 Sudoeste 22 Sudoeste 0 -- -- 84
2020-11-12 08:00:00 8.6 7 Sur 14 Sur 0 -- -- 90
2020-11-12 07:00:00 8.7 3 Sur 14 Sudoeste 0 -- -- 93
2020-11-12 06:00:00 9 8 Sur 21 Sur 0 -- -- 92
2020-11-12 05:00:00 9 6 Sur 21 Sur 0.6 -- -- 96
2020-11-12 04:00:00 9.2 9 Sur 19 Sur 0 -- -- 95
2020-11-12 03:00:00 8.5 9 Sudeste 21 Sur 0 -- -- 95
2020-11-12 02:00:00 9 10 Sur 26 Oeste 0.2 -- -- 92
2020-11-12 01:00:00 9.4 13 Sur 28 Sur 0 -- -- 83
2020-11-12 00:00:00 9.6 12 Sur 35 Sur 0 -- -- 82
2020-11-11 23:00:00 9.4 11 Sur 28 Sudeste 0 -- -- 76
2020-11-11 22:00:00 9 15 Sur 37 Sur 0 -- -- 77
2020-11-11 21:00:00 9 13 Sur 29 Sur 0 -- -- 83
2020-11-11 20:00:00 9 9 Sur 28 Sur 0 -- -- 84
2020-11-11 19:00:00 9.1 8 Sudoeste 28 Sur 0 -- -- 83
2020-11-11 18:00:00 9.4 10 Sur 35 Sur 0 -- -- 79
2020-11-11 17:00:00 9.8 15 Sur 39 Sur 0 -- -- 75
2020-11-11 16:00:00 9.9 14 Sur 37 Sur 0 -- -- 71
2020-11-11 15:00:00 9.8 18 Sur 46 Sur 0 -- -- 77
2020-11-11 14:00:00 9.7 15 Sur 43 Sur 0 -- -- 76
2020-11-11 13:00:00 9.8 17 Sur 39 Sudoeste 0 -- -- 78
2020-11-11 12:00:00 10.2 14 Sur 50 Sudoeste 0 -- -- 75
2020-11-11 11:00:00 9.2 16 Sur 46 Sur 0 -- -- 75
2020-11-11 10:00:00 7.4 4 Este 18 Sudeste 0 -- -- 87
2020-11-11 09:00:00 6.3 9 Sudeste 17 Sudeste 0 -- -- 87
2020-11-11 08:00:00 6.6 9 Sudeste 22 Sudeste 0 -- -- 85
2020-11-11 07:00:00 6.6 10 Sudeste 21 Sur 0 -- -- 87
2020-11-11 06:00:00 6.3 11 Sur 17 Sudeste 0 -- -- 89
2020-11-11 05:00:00 6.4 11 Sudeste 19 Sur 0 -- -- 89
2020-11-11 04:00:00 6.3 10 Sur 19 Sur 0 -- -- 88
2020-11-11 03:00:00 6.7 12 Sur 21 Sudeste 0 -- -- 86
2020-11-11 02:00:00 6.5 9 Sudeste 21 Sur 0 -- -- 87
2020-11-11 01:00:00 6.8 13 Sudeste 21 Sudeste 0 -- -- 86
2020-11-11 00:00:00 7.1 12 Sudeste 22 Sudeste 0 -- -- 87
2020-11-10 23:00:00 7.4 12 Sur 25 Sur 0 -- -- 88
2020-11-10 22:00:00 7.6 14 Sur 20 Sudeste 0 -- -- 90
2020-11-10 21:00:00 7.9 10 Sur 18 Sudeste 0 -- -- 89
2020-11-10 20:00:00 7.8 5 Sudeste 12 Sudeste 0 -- -- 90
2020-11-10 19:00:00 7.8 6 Sur 11 Oeste 0 -- -- 94
2020-11-10 18:00:00 9.8 5 Sur 14 Sur 0 -- -- 85
2020-11-10 17:00:00 10.7 6 Sur 14 Sudoeste 0 -- -- 85
2020-11-10 16:00:00 11.1 3 Sudoeste 14 Oeste 0 -- -- 85
2020-11-10 15:00:00 10.6 6 Oeste 13 Sudoeste 0 -- -- 88
2020-11-10 14:00:00 11.3 4 Sur 12 Sur 0 -- -- 85
2020-11-10 13:00:00 11 4 Sur 12 Sudeste 0 -- -- 81
2020-11-10 12:00:00 9.9 4 Sudeste 9 Sur 0 -- -- 93
2020-11-10 11:00:00 7.5 5 Sur 14 Sudeste 0 -- -- 100
2020-11-10 10:00:00 5.4 5 Este 12 Este 0 -- -- 100
2020-11-10 09:00:00 5.1 6 Sudoeste 15 Sudoeste 0 -- -- 100
2020-11-10 08:00:00 4.7 8 Sudoeste 12 Oeste 0 -- -- 100
2020-11-10 07:00:00 4.7 7 Sudoeste 13 Sudoeste 0 -- -- 100
2020-11-10 06:00:00 5 9 Sudoeste 14 Sudoeste 0 -- -- 100
2020-11-10 05:00:00 5.5 8 Sudoeste 15 Sudoeste 0 -- -- 100
2020-11-10 04:00:00 6.1 4 Sudoeste 18 Sudoeste 0 -- -- 100
2020-11-10 03:00:00 6.2 6 Sudoeste 18 Sudoeste 0 -- -- 100
2020-11-10 02:00:00 6.1 10 Sudoeste 15 Sudoeste 0 -- -- 100
2020-11-10 01:00:00 6.4 5 Sudoeste 13 Sur 0 -- -- 100
2020-11-10 00:00:00 6.9 6 Sudoeste 12 Sudoeste 0 -- -- 100
2020-11-09 23:00:00 7.2 6 Oeste 15 Oeste 0 -- -- 100
2020-11-09 22:00:00 7.4 5 Oeste 15 Oeste 0 -- -- 100
2020-11-09 21:00:00 7.8 4 Oeste 11 Oeste 0 -- -- 100
2020-11-09 20:00:00 7.8 2 Sudeste 12 Sudoeste 0 -- -- 100
2020-11-09 19:00:00 7.7 5 Oeste 14 Oeste 0 -- -- 100
2020-11-09 18:00:00 7.8 4 Sur 18 Oeste 0 -- -- 100
2020-11-09 17:00:00 8.2 8 Oeste 23 Sudoeste 2 -- -- 100
2020-11-09 16:00:00 8.9 8 Sudoeste 19 Oeste 0.4 -- -- 96
2020-11-09 15:00:00 10.1 5 Sudoeste 22 Sudoeste 0 -- -- 91
2020-11-09 14:00:00 9.6 6 Sudoeste 22 Sudoeste 0 -- -- 92
2020-11-09 13:00:00 9.1 6 Sudoeste 19 Sudoeste 0 -- -- 98
2020-11-09 12:00:00 8.4 10 Sur 24 Sudoeste 1.6 -- -- 100
2020-11-09 11:00:00 8.5 10 Sudoeste 26 Sur 0.8 -- -- 99
2020-11-09 10:00:00 8 12 Sur 32 Sudoeste 0 -- -- 100
2020-11-09 09:00:00 7.7 15 Sur 35 Sur 0.4 -- -- 99
2020-11-09 08:00:00 7.6 14 Sur 30 Sur 0.6 -- -- 98
2020-11-09 07:00:00 7.8 13 Sur 28 Sudoeste 0.4 -- -- 97
2020-11-09 06:00:00 8 13 Sur 40 Sur 0 -- -- 93
2020-11-09 05:00:00 8 14 Sur 31 Sudoeste 0 -- -- 94
2020-11-09 04:00:00 8 15 Sur 39 Sur 0 -- -- 93
2020-11-09 03:00:00 8.2 15 Sur 31 Sur 0 -- -- 93
2020-11-09 02:00:00 8 15 Sur 33 Sur 0 -- -- 93
2020-11-09 01:00:00 8.1 15 Sur 32 Sudoeste 0 -- -- 94
2020-11-09 00:00:00 8.2 17 Sur 31 Sudoeste 0 -- -- 96
2020-11-08 23:00:00 8 17 Sur 34 Sur 0 -- -- 98
2020-11-08 22:00:00 8.1 14 Sur 33 Sudoeste 0.6 -- -- 99
2020-11-08 21:00:00 8.4 12 Sur 37 Sur 0 -- -- 96
2020-11-08 20:00:00 8.6 15 Sur 39 Sur 0.2 -- -- 95
2020-11-08 19:00:00 9.1 9 Sudoeste 26 Sur 1.2 -- -- 96
2020-11-08 18:00:00 9.8 11 Sur 26 Sudoeste 0 -- -- 87
2020-11-08 17:00:00 10 9 Sudoeste 36 Sur 0 -- -- 90
2020-11-08 16:00:00 10.3 16 Sur 33 Sur 0.2 -- -- 88
2020-11-08 15:00:00 11.2 15 Sur 41 Sudeste 0 -- -- 86
2020-11-08 14:00:00 12.4 12 Sur 30 Sudoeste 0 -- -- 78
2020-11-08 13:00:00 11.5 10 Sur 38 Sur 0 -- -- 84
2020-11-08 12:00:00 11.4 10 Sudeste 40 Sur 0 -- -- 81
2020-11-08 11:00:00 10.9 15 Sur 44 Sur 0.2 -- -- 82
2020-11-08 10:00:00 10.7 13 Sur 45 Sur 0 -- -- 85
2020-11-08 09:00:00 10 10 Sudeste 28 Sur 0 -- -- 88
2020-11-08 08:00:00 9.7 13 Sudeste 35 Sur 0 -- -- 87
2020-11-08 07:00:00 9.2 9 Sudeste 33 Sur 0 -- -- 88
2020-11-08 06:00:00 9.6 13 Sur 37 Sur 0 -- -- 88
2020-11-08 05:00:00 9.4 14 Sur 35 Sudeste 0 -- -- 91
2020-11-08 04:00:00 9.5 12 Sur 37 Sur 0 -- -- 91
2020-11-08 03:00:00 9.5 13 Sur 30 Sur 0 -- -- 92
2020-11-08 02:00:00 9.7 10 Sur 30 Sur 0 -- -- 91
2020-11-08 01:00:00 9.4 13 Sur 31 Sudeste 0 -- -- 92
2020-11-08 00:00:00 8.9 13 Sudeste 27 Sur 0 -- -- 94
2020-11-07 23:00:00 8.8 8 Sudeste 19 Sudeste 0 -- -- 95
2020-11-07 22:00:00 9.1 12 Sur 27 Sur 0 -- -- 92
2020-11-07 21:00:00 9.1 14 Sur 31 Sur 0 -- -- 93
2020-11-07 20:00:00 8.9 15 Sur 38 Sur 0.2 -- -- 96
2020-11-07 19:00:00 8.9 18 Sur 36 Sur 0.2 -- -- 97
2020-11-07 18:00:00 9.1 16 Sur 32 Sur 0.4 -- -- 96
2020-11-07 17:00:00 9.3 12 Sur 27 Sur 0.2 -- -- 95
2020-11-07 16:00:00 9.9 12 Sur 32 Sur 0 -- -- 90
2020-11-07 15:00:00 10.6 10 Sur 28 Sur 0 -- -- 84
2020-11-07 14:00:00 11.4 10 Sur 32 Sur 0 -- -- 78
2020-11-07 13:00:00 11.7 11 Sur 27 Sudeste 0 -- -- 73
2020-11-07 12:00:00 10.5 14 Sur 33 Sudoeste 0 -- -- 77
2020-11-07 11:00:00 10.5 9 Sur 24 Sur 0 -- -- 83
2020-11-07 10:00:00 8.8 7 Sur 29 Sur 0 -- -- 90
2020-11-07 09:00:00 8.4 11 Sur 22 Sur 0 -- -- 90
2020-11-07 08:00:00 8.1 8 Sur 32 Sur 0 -- -- 89
2020-11-07 07:00:00 8.4 16 Sur 27 Sur 0 -- -- 87
2020-11-07 06:00:00 8.5 10 Sur 30 Sudeste 0 -- -- 88
2020-11-07 05:00:00 8.5 12 Sudeste 30 Sudeste 0 -- -- 91
2020-11-07 04:00:00 8.7 13 Sur 24 Sur 0 -- -- 91
2020-11-07 03:00:00 8.7 8 Sur 23 Sudeste 0 -- -- 91
2020-11-07 02:00:00 8.9 10 Sur 31 Sur 0 -- -- 93
2020-11-07 01:00:00 8.9 18 Sur 34 Sudeste 0 -- -- 94
2020-11-07 00:00:00 8.6 11 Sur 24 Sudeste 0 -- -- 99
2020-11-06 23:00:00 8.7 12 Sur 28 Sudoeste 1.8 -- -- 100
2020-11-06 22:00:00 8.1 14 Sudoeste 41 Sudoeste 2.2 -- -- 100
2020-11-06 21:00:00 9.6 14 Sudoeste 40 Sudeste 1 -- -- 96
2020-11-06 20:00:00 10.6 14 Este 43 Sudoeste 4.8 -- -- 97
2020-11-06 19:00:00 11.5 14 Sudeste 46 Sudeste 0 -- -- 88
2020-11-06 18:00:00 11.2 14 Este 35 Sudeste 0 -- -- 90
2020-11-06 17:00:00 11.4 12 Este 43 Nordeste 0 -- -- 88
2020-11-06 16:00:00 12 10 Este 41 Sudeste 0 -- -- 86
2020-11-06 15:00:00 12.5 11 Este 53 Este 0 -- -- 80
2020-11-06 14:00:00 12.1 15 Este 48 Sudeste 0 -- -- 79
2020-11-06 13:00:00 11.8 10 Este 40 Este 0 -- -- 83
2020-11-06 12:00:00 11 11 Este 39 Sudeste 0 -- -- 87
2020-11-06 11:00:00 10.8 13 Este 47 Sudeste 0 -- -- 86
2020-11-06 10:00:00 8.9 10 Este 36 Este 0 -- -- 93
2020-11-06 09:00:00 8.8 17 Sudeste 45 Este 0 -- -- 91
2020-11-06 08:00:00 8.7 19 Sudeste 46 Sudeste 0 -- -- 89
2020-11-06 07:00:00 8.5 21 Sudeste 49 Sudeste 0 -- -- 94
2020-11-06 06:00:00 8.3 18 Este 42 Este 0 -- -- 98
2020-11-06 05:00:00 8.6 17 Sudeste 46 Sudeste 0 -- -- 96
2020-11-06 04:00:00 8.2 10 Este 38 Sudeste 0 -- -- 95
2020-11-06 03:00:00 8.2 11 Este 31 Este 0 -- -- 94
2020-11-06 02:00:00 8.2 7 Este 31 Este 0 -- -- 95
2020-11-06 01:00:00 8.4 12 Este 34 Nordeste 0 -- -- 94
2020-11-06 00:00:00 9.1 8 Este 32 Este 0 -- -- 93
2020-11-05 23:00:00 9.3 12 Este 39 Este 0 -- -- 90
2020-11-05 22:00:00 9.3 12 Este 47 Este 0 -- -- 89
2020-11-05 21:00:00 9.4 11 Este 29 Este 0 -- -- 90
2020-11-05 20:00:00 8.9 8 Este 19 Nordeste 0 -- -- 91
2020-11-05 19:00:00 8.7 5 Este 15 Este 0 -- -- 91
2020-11-05 18:00:00 8.5 7 Este 18 Este 0 -- -- 91
2020-11-05 17:00:00 8.6 6 Este 16 Este 0 -- -- 90
2020-11-05 16:00:00 8.6 8 Este 19 Sudeste 0 -- -- 90
2020-11-05 15:00:00 8.1 5 Este 22 Este 0 -- -- 91
2020-11-05 14:00:00 7.6 5 Nordeste 15 Nordeste 0 -- -- 90
2020-11-05 13:00:00 8.6 8 Este 25 Este 0 -- -- 91
2020-11-05 12:00:00 6.2 10 Este 32 Este 0 -- -- 96
2020-11-05 11:00:00 4.4 7 Este 26 Este 0 -- -- 100
2020-11-05 10:00:00 3.5 8 Este 23 Nordeste 0 -- -- 100
2020-11-05 09:00:00 2.7 9 Este 25 Este 0 -- -- 100
2020-11-05 08:00:00 2.3 9 Este 25 Este 0 -- -- 100
2020-11-05 07:00:00 2.4 4 Este 19 Nordeste 0 -- -- 98
2020-11-05 06:00:00 2.3 6 Este 27 Este 0 -- -- 98
2020-11-05 05:00:00 2.4 9 Este 23 Este 0 -- -- 98
2020-11-05 04:00:00 2.6 11 Este 29 Nordeste 0 -- -- 97
2020-11-05 03:00:00 2.8 9 Este 19 Este 0 -- -- 97
2020-11-05 02:00:00 2.4 7 Este 31 Nordeste 0 -- -- 96
2020-11-05 01:00:00 2.3 11 Este 34 Este 0 -- -- 95
2020-11-05 00:00:00 2.2 14 Este 38 Este 0 -- -- 93
2020-11-04 23:00:00 2.6 16 Este 38 Este 0 -- -- 91
2020-11-04 22:00:00 2.9 14 Este 40 Este 0 -- -- 89
2020-11-04 21:00:00 2.7 15 Este 42 Este 0 -- -- 91
2020-11-04 20:00:00 3 20 Este 48 Sudeste 0 -- -- 93
2020-11-04 19:00:00 3.1 17 Este 40 Nordeste 0 -- -- 94
2020-11-04 18:00:00 3.2 17 Este 42 Este 0 -- -- 91
2020-11-04 17:00:00 3.6 16 Nordeste 46 Nordeste 0 -- -- 90
2020-11-04 16:00:00 4.5 15 Nordeste 35 Nordeste 0 -- -- 87
2020-11-04 15:00:00 5.1 13 Este 33 Este 0 -- -- 86
2020-11-04 14:00:00 4.9 10 Este 28 Sudeste 0 -- -- 90
2020-11-04 13:00:00 5.3 6 Este 31 Nordeste 0 -- -- 94
2020-11-04 12:00:00 4.7 9 Nordeste 27 Nordeste 0 -- -- 96
2020-11-04 11:00:00 3.9 7 Nordeste 21 Este 0 -- -- 100
2020-11-04 10:00:00 2.9 6 Nordeste 17 Nordeste 0 -- -- 100
2020-11-04 09:00:00 1.6 6 Nordeste 17 Nordeste 0 -- -- 100
2020-11-04 08:00:00 0.7 8 Este 19 Sudeste 0 -- -- 100
2020-11-04 07:00:00 0.7 6 Este 20 Este 0 -- -- 100
2020-11-04 06:00:00 0.6 8 Este 15 Nordeste 0 -- -- 100
2020-11-04 05:00:00 0.6 6 Nordeste 19 Nordeste 0 -- -- 100
2020-11-04 04:00:00 0.5 6 Nordeste 16 Este 0 -- -- 100
2020-11-04 03:00:00 0.5 7 Este 17 Nordeste 0 -- -- 100
2020-11-04 02:00:00 0.8 7 Este 21 Nordeste 0 -- -- 100
2020-11-04 01:00:00 0.8 8 Nordeste 21 Nordeste 0 -- -- 100
2020-11-04 00:00:00 1.2 8 Nordeste 21 Nordeste 0 -- -- 100
2020-11-03 23:00:00 1.7 9 Nordeste 22 Nordeste 0 -- -- 100
2020-11-03 22:00:00 1.2 8 Nordeste 24 Nordeste 0 -- -- 100
2020-11-03 21:00:00 1.4 9 Nordeste 24 Nordeste 0 -- -- 99
2020-11-03 20:00:00 1.8 9 Nordeste 28 Nordeste 0 -- -- 98
2020-11-03 19:00:00 2.6 8 Nordeste 27 Este 0 -- -- 99
2020-11-03 18:00:00 3.3 10 Nordeste 28 Nordeste 0 -- -- 100
2020-11-03 17:00:00 4.3 10 Nordeste 25 Nordeste 0 -- -- 97
2020-11-03 16:00:00 5.2 8 Nordeste 23 Nordeste 0 -- -- 96
2020-11-03 15:00:00 5 9 Nordeste 26 Nordeste 0 -- -- 100
2020-11-03 14:00:00 5.2 10 Nordeste 23 Nordeste 0 -- -- 100
2020-11-03 13:00:00 4.9 8 Nordeste 26 Nordeste 0 -- -- 100
2020-11-03 12:00:00 5.3 9 Nordeste 26 Norte 0 -- -- 100
2020-11-03 11:00:00 4.2 10 Nordeste 26 Nordeste 0 -- -- 100
2020-11-03 10:00:00 3.9 9 Nordeste 26 Nordeste 0.2 -- -- 100
2020-11-03 09:00:00 3.6 8 Nordeste 23 Nordeste 0 -- -- 100
2020-11-03 08:00:00 4.2 6 Nordeste 17 Nordeste 0 -- -- 100
2020-11-03 07:00:00 4.2 6 Nordeste 15 Nordeste 0 -- -- 100
2020-11-03 06:00:00 4.6 3 Nordeste 9 Noroeste 0 -- -- 100
2020-11-03 05:00:00 4.5 4 Noroeste 18 Norte 0 -- -- 100
2020-11-03 04:00:00 4.1 5 Noroeste 12 Noroeste 0 -- -- 99
2020-11-03 03:00:00 3.7 4 Norte 13 Noroeste 0 -- -- 98
2020-11-03 02:00:00 3.8 9 Noroeste 18 Oeste 0 -- -- 97
2020-11-03 01:00:00 3.9 10 Oeste 22 Oeste 0 -- -- 98
2020-11-03 00:00:00 4 15 Noroeste 23 Noroeste 0 -- -- 100
2020-11-02 23:00:00 4.9 11 Oeste 19 Oeste 0 -- -- 100
2020-11-02 22:00:00 6 9 Oeste 21 Oeste 0 -- -- 100
2020-11-02 21:00:00 6.4 13 Oeste 22 Oeste 0 -- -- 100
2020-11-02 20:00:00 6.4 12 Oeste 23 Oeste 0.2 -- -- 100
2020-11-02 19:00:00 7.1 10 Oeste 17 Oeste 0 -- -- 100
2020-11-02 18:00:00 7.6 4 Noroeste 11 Oeste 0.6 -- -- 100
2020-11-02 17:00:00 8 5 Oeste 13 Noroeste 0.8 -- -- 100
2020-11-02 16:00:00 7.8 9 Oeste 21 Sudoeste 0.8 -- -- 100
2020-11-02 15:00:00 8.1 9 Noroeste 27 Noroeste 0.2 -- -- 100
2020-11-02 14:00:00 8.3 15 Oeste 33 Oeste 1 -- -- 100
2020-11-02 13:00:00 9.9 17 Oeste 30 Oeste 2.2 -- -- 100
2020-11-02 12:00:00 11.8 10 Oeste 49 Oeste 3.2 -- -- 96
2020-11-02 11:00:00 12.9 13 Sur 37 Sur 0 -- -- 98
2020-11-02 10:00:00 12.5 13 Sur 33 Sur 0 -- -- 98
2020-11-02 09:00:00 11.9 15 Sur 37 Sudoeste 0 -- -- 100
2020-11-02 08:00:00 11.7 14 Sudoeste 38 Sudoeste 0 -- -- 100
2020-11-02 07:00:00 11.5 12 Sur 31 Sur 0 -- -- 100
2020-11-02 06:00:00 11.7 12 Sudoeste 39 Sur 0.4 -- -- 100
2020-11-02 05:00:00 11.7 11 Sudoeste 35 Sudeste 0 -- -- 100
2020-11-02 04:00:00 11.6 14 Sudoeste 37 Sudoeste 0 -- -- 100
2020-11-02 03:00:00 11.8 15 Sudoeste 37 Oeste 0.6 -- -- 100
2020-11-02 02:00:00 11.9 15 Sur 36 Sudoeste 0 -- -- 100
2020-11-02 01:00:00 12.2 12 Sudoeste 35 Sudoeste 0.4 -- -- 100
2020-11-02 00:00:00 12.6 14 Sur 38 Sur 0 -- -- 99
2020-11-01 23:00:00 12.9 13 Sur 42 Sur 0 -- -- 97
2020-11-01 22:00:00 13.2 17 Sur 48 Sudoeste 0 -- -- 95
2020-11-01 21:00:00 13.4 17 Sur 45 Sudoeste 0 -- -- 95
2020-11-01 20:00:00 13.3 18 Sur 40 Sur 0 -- -- 97
2020-11-01 19:00:00 13.8 15 Sur 44 Sur 0 -- -- 94
2020-11-01 18:00:00 14 14 Sudoeste 42 Sur 0 -- -- 95
2020-11-01 17:00:00 14.4 16 Sur 39 Sudoeste 0 -- -- 93
2020-11-01 16:00:00 14.6 11 Sur 42 Sur 0 -- -- 93
2020-11-01 15:00:00 14.6 15 Sur 36 Sudoeste 0 -- -- 93
2020-11-01 14:00:00 14.7 15 Sur 38 Sudoeste 0 -- -- 91
2020-11-01 13:00:00 15 13 Sur 36 Sur 0 -- -- 91
2020-11-01 12:00:00 14.3 13 Sur 41 Sur 0 -- -- 94
2020-11-01 11:00:00 13.1 15 Sur 35 Sur 0 -- -- 98
2020-11-01 10:00:00 13.4 9 Sur 35 Oeste 0 -- -- 95
2020-11-01 09:00:00 13.2 11 Sur 39 Sur 0 -- -- 95
2020-11-01 08:00:00 13.1 15 Sur 38 Sudoeste 0 -- -- 94
2020-11-01 07:00:00 12.9 14 Sur 35 Sudoeste 0 -- -- 96
2020-11-01 06:00:00 13 10 Sur 43 Sur 0 -- -- 94
2020-11-01 05:00:00 12.9 15 Sur 43 Sur 0 -- -- 92
2020-11-01 04:00:00 13.2 14 Sur 42 Sur 0 -- -- 91
2020-11-01 03:00:00 12.8 17 Sur 39 Sudoeste 0 -- -- 90
2020-11-01 02:00:00 12.6 12 Sudoeste 38 Sur 0 -- -- 92
2020-11-01 01:00:00 12.6 13 Sudoeste 44 Oeste 0 -- -- 92
2020-11-01 00:00:00 12.8 15 Sur 40 Sur 0 -- -- 91
2020-10-31 23:00:00 12.6 15 Sur 41 Sur 0 -- -- 92
2020-10-31 22:00:00 12.5 15 Sur 39 Sudoeste 0 -- -- 93
2020-10-31 21:00:00 12.6 19 Sur 37 Sudoeste 0 -- -- 91
2020-10-31 20:00:00 12.9 14 Sur 33 Sur 0 -- -- 92
2020-10-31 19:00:00 13 13 Sur 31 Sudoeste 0 -- -- 93
2020-10-31 18:00:00 13.2 13 Sur 35 Sur 0 -- -- 92
2020-10-31 17:00:00 13.8 12 Sudoeste 33 Sudoeste 0 -- -- 90
2020-10-31 16:00:00 14.2 13 Sur 33 Sur 0 -- -- 87
2020-10-31 15:00:00 13.8 13 Sur 33 Sudoeste 0 -- -- 89
2020-10-31 14:00:00 13.9 12 Sur 33 Sur 0 -- -- 88
2020-10-31 13:00:00 13.5 15 Sur 33 Oeste 0 -- -- 88
2020-10-31 12:00:00 13.2 10 Sudoeste 40 Sudoeste 0 -- -- 87
2020-10-31 11:00:00 12.8 16 Sudoeste 36 Sur 0 -- -- 89
2020-10-31 10:00:00 12.2 18 Sur 47 Sur 0 -- -- 88
2020-10-31 09:00:00 12 15 Sur 41 Sudoeste 0 -- -- 89
2020-10-31 08:00:00 11.7 15 Sur 39 Sur 0 -- -- 90
2020-10-31 07:00:00 11.4 16 Sudoeste 36 Sur 0 -- -- 94
2020-10-31 06:00:00 11.9 16 Sur 39 Sur 0 -- -- 91
2020-10-31 05:00:00 11.4 15 Sur 37 Sur 0 -- -- 91
2020-10-31 04:00:00 11.2 15 Sur 34 Sur 0 -- -- 88
2020-10-31 03:00:00 10.9 14 Sur 35 Sudoeste 0 -- -- 85
2020-10-31 02:00:00 11.5 14 Sudoeste 32 Sudoeste 0 -- -- 81
2020-10-31 01:00:00 12 21 Sur 35 Sur 0 -- -- 78
2020-10-31 00:00:00 11.5 14 Sur 27 Sudeste 0 -- -- 80
2020-10-30 23:00:00 11.5 10 Sur 20 Sur 0 -- -- 81
2020-10-30 22:00:00 12 17 Sur 30 Sudoeste 0 -- -- 78
2020-10-30 21:00:00 11.9 10 Sur 19 Sur 0 -- -- 79
2020-10-30 20:00:00 12.3 9 Sur 21 Sur 0 -- -- 78
2020-10-30 19:00:00 12.7 10 Sudoeste 21 Sudoeste 0 -- -- 80
2020-10-30 18:00:00 14 12 Sudoeste 22 Sur 0 -- -- 73
2020-10-30 17:00:00 15.6 8 Sudoeste 21 Sudoeste 0 -- -- 71
2020-10-30 16:00:00 15.3 12 Oeste 22 Sudoeste 0 -- -- 70
2020-10-30 15:00:00 15.1 10 Oeste 18 Sudoeste 0 -- -- 73
2020-10-30 14:00:00 15.6 4 Nordeste 16 Sudeste 0 -- -- 66
2020-10-30 13:00:00 15.3 5 Sudeste 13 Sudeste 0 -- -- 68
2020-10-30 12:00:00 14.1 4 Sudeste 10 Este 0 -- -- 71
2020-10-30 11:00:00 12 4 Este 20 Sudeste 0 -- -- 80
2020-10-30 10:00:00 9.9 6 Sudeste 18 Sudeste 0 -- -- 84
2020-10-30 09:00:00 8.2 13 Sudeste 26 Sudeste 0 -- -- 86
2020-10-30 08:00:00 7 7 Sudeste 17 Sudeste 0 -- -- 90
2020-10-30 07:00:00 7.4 10 Sudeste 19 Sudeste 0 -- -- 87
2020-10-30 06:00:00 7.8 9 Sur 18 Sudeste 0 -- -- 83
2020-10-30 05:00:00 7.7 4 Sudeste 17 Sur 0 -- -- 83
2020-10-30 04:00:00 8.1 9 Sur 16 Sudeste 0 -- -- 82
2020-10-30 03:00:00 8.4 11 Sudeste 16 Sudeste 0 -- -- 82
2020-10-30 02:00:00 8.6 10 Sudeste 16 Sur 0 -- -- 80
2020-10-30 01:00:00 9 12 Sudeste 17 Sudeste 0 -- -- 78
2020-10-30 00:00:00 9.4 14 Sudeste 21 Sur 0 -- -- 77
2020-10-29 23:00:00 9.6 13 Sudeste 20 Sudeste 0 -- -- 78
2020-10-29 22:00:00 9.7 11 Sudeste 24 Sudeste 0 -- -- 78
2020-10-29 21:00:00 9.7 12 Sudeste 23 Sudeste 0 -- -- 83
2020-10-29 20:00:00 10.5 13 Sudeste 23 Sur 0 -- -- 78
2020-10-29 19:00:00 9.4 9 Sudoeste 16 Sur 0 -- -- 88
2020-10-29 18:00:00 10 8 Sudoeste 17 Sudoeste 0 -- -- 90
2020-10-29 17:00:00 10.8 14 Oeste 21 Oeste 0 -- -- 87
2020-10-29 16:00:00 10.8 16 Oeste 24 Sudoeste 0 -- -- 87
2020-10-29 15:00:00 10 18 Oeste 26 Oeste 0 -- -- 89
2020-10-29 14:00:00 10.2 12 Oeste 18 Sudoeste 0 -- -- 87
2020-10-29 13:00:00 10 10 Oeste 16 Oeste 0 -- -- 86
2020-10-29 12:00:00 11.4 5 Oeste 14 Sur 0 -- -- 83
2020-10-29 11:00:00 10 7 Sur 17 Sur 0 -- -- 71
2020-10-29 10:00:00 7.5 3 Norte 8 Norte 0 -- -- 89
2020-10-29 09:00:00 6.6 0 Calma 15 Sudeste 0 -- -- 89
2020-10-29 08:00:00 5.7 9 Sudeste 13 Sudeste 0 -- -- 100
2020-10-29 07:00:00 5.5 10 Sudoeste 18 Sudoeste 0 -- -- 100
2020-10-29 06:00:00 5.5 11 Sudoeste 18 Sudoeste 0 -- -- 100
2020-10-29 05:00:00 5.9 6 Sur 15 Sudoeste 0 -- -- 99
2020-10-29 04:00:00 6 5 Sudoeste 11 Sudoeste 0 -- -- 98
2020-10-29 03:00:00 6.2 5 Sur 15 Sur 0 -- -- 99
2020-10-29 02:00:00 6.1 7 Oeste 17 Sudoeste 0 -- -- 100
2020-10-29 01:00:00 6 8 Oeste 21 Sudoeste 0 -- -- 99
2020-10-29 00:00:00 6.4 8 Sudoeste 18 Sudoeste 0 -- -- 99
2020-10-28 23:00:00 6.6 4 Sudoeste 15 Sudoeste 0 -- -- 98
2020-10-28 22:00:00 7.2 6 Sudoeste 18 Oeste 0 -- -- 98
2020-10-28 21:00:00 7.5 4 Sudoeste 15 Oeste 0 -- -- 98
2020-10-28 20:00:00 7.5 4 Oeste 17 Oeste 0 -- -- 98
2020-10-28 19:00:00 8 5 Sudoeste 15 Oeste 0 -- -- 97
2020-10-28 18:00:00 8.3 6 Sudoeste 19 Oeste 0 -- -- 94
2020-10-28 17:00:00 8.7 5 Sudoeste 15 Sudoeste 0 -- -- 92
2020-10-28 16:00:00 9 5 Sur 20 Sudoeste 0 -- -- 92
2020-10-28 15:00:00 9.7 6 Sudoeste 16 Oeste 0 -- -- 90
2020-10-28 14:00:00 8.4 7 Sur 25 Oeste 0 -- -- 96
2020-10-28 13:00:00 9 8 Sudoeste 28 Oeste 0 -- -- 94
2020-10-28 12:00:00 8.4 9 Sur 33 Sudoeste 0 -- -- 95
2020-10-28 11:00:00 8 9 Sudoeste 27 Sudoeste 0 -- -- 93
2020-10-28 10:00:00 6.7 8 Sudoeste 21 Oeste 0 -- -- 100
2020-10-28 09:00:00 6.1 4 Este 17 Oeste 0 -- -- 100
2020-10-28 08:00:00 5.9 5 Sur 19 Oeste 0 -- -- 100
2020-10-28 07:00:00 5.9 6 Sur 23 Sudoeste 0 -- -- 100
2020-10-28 06:00:00 6 9 Sudoeste 24 Sudoeste 1 -- -- 100
2020-10-28 05:00:00 6.5 10 Oeste 23 Oeste 1.2 -- -- 100
2020-10-28 04:00:00 7.1 7 Sur 21 Sudoeste 0 -- -- 100
2020-10-28 03:00:00 7.1 5 Sudeste 16 Oeste 0 -- -- 100
2020-10-28 02:00:00 7.3 6 Sur 28 Oeste 0 -- -- 100
2020-10-28 01:00:00 7.9 12 Sudoeste 39 Sudoeste 0.2 -- -- 100
2020-10-28 00:00:00 8.4 11 Oeste 34 Oeste 1.2 -- -- 100
2020-10-27 23:00:00 8.7 13 Oeste 42 Sudoeste 1.4 -- -- 100
2020-10-27 22:00:00 10.1 17 Sudoeste 52 Sudoeste 0 -- -- 100
2020-10-27 21:00:00 10.2 14 Sudoeste 42 Sudoeste 0 -- -- 100
2020-10-27 20:00:00 10.1 15 Sudoeste 47 Sudoeste 0.8 -- -- 100
2020-10-27 19:00:00 10.3 19 Sur 56 Sudoeste 0.4 -- -- 100
2020-10-27 18:00:00 9.8 19 Sur 65 Sur 0 -- -- 100
2020-10-27 17:00:00 9.4 17 Sur 56 Sudeste 0 -- -- 100
2020-10-27 16:00:00 9 20 Sur 55 Sur 0 -- -- 100
2020-10-27 15:00:00 8.8 15 Sur 43 Sudoeste 0 -- -- 100
2020-10-27 14:00:00 8.6 15 Sudoeste 40 Sur 0.2 -- -- 100
2020-10-27 13:00:00 8.3 16 Sur 47 Sur 0 -- -- 100
2020-10-27 12:00:00 7.9 19 Sur 52 Sudoeste 0.2 -- -- 100
2020-10-27 11:00:00 7.4 18 Sur 43 Sudoeste 0 -- -- 100
2020-10-27 10:00:00 7.1 16 Sudoeste 40 Sudoeste 0 -- -- 100
2020-10-27 09:00:00 6.5 17 Sudoeste 45 Sudoeste 0 -- -- 100
2020-10-27 08:00:00 6.2 15 Sudoeste 45 Sur 0 -- -- 100
2020-10-27 07:00:00 5.7 17 Sudoeste 41 Sudoeste 0 -- -- 100
2020-10-27 06:00:00 5.6 14 Sudoeste 39 Sur 0 -- -- 100
2020-10-27 05:00:00 5.3 15 Sudoeste 32 Sudoeste 0 -- -- 100
2020-10-27 04:00:00 5.3 15 Sudoeste 41 Oeste 0.2 -- -- 100
2020-10-27 03:00:00 5.1 14 Sudoeste 37 Oeste 0 -- -- 100
2020-10-27 02:00:00 4.9 12 Sudoeste 37 Sur 0 -- -- 100
2020-10-27 01:00:00 4.6 10 Sudoeste 41 Sudoeste 0 -- -- 100
2020-10-27 00:00:00 4.5 12 Sudoeste 28 Oeste 0.2 -- -- 100
2020-10-26 23:00:00 4.7 9 Sudoeste 26 Sudoeste 0.2 -- -- 100
2020-10-26 22:00:00 4.7 8 Sudoeste 27 Sudoeste 0 -- -- 100
2020-10-26 21:00:00 4.7 7 Sur 24 Sur 0.2 -- -- 100
2020-10-26 20:00:00 4.7 5 Sudoeste 33 Oeste 0.2 -- -- 100
2020-10-26 19:00:00 4.7 9 Sudoeste 30 Oeste 0.2 -- -- 100
2020-10-26 18:00:00 4.8 5 Sudoeste 19 Oeste 0.4 -- -- 100
2020-10-26 17:00:00 4.7 6 Sudoeste 34 Oeste 0.4 -- -- 100
2020-10-26 16:00:00 5 11 Oeste 30 Sudoeste 0.2 -- -- 100
2020-10-26 15:00:00 5.5 9 Sudoeste 28 Sudoeste 0 -- -- 100
2020-10-26 14:00:00 5.4 11 Sudoeste 31 Sudoeste 0 -- -- 100
2020-10-26 13:00:00 5.2 8 Sudoeste 25 Sudoeste 0 -- -- 100
2020-10-26 12:00:00 4.5 12 Sudoeste 29 Sudoeste 0 -- -- 100
2020-10-26 11:00:00 3.9 11 Oeste 30 Oeste 0.2 -- -- 100
2020-10-26 10:00:00 3.6 6 Sudoeste 24 Oeste 0 -- -- 100
2020-10-26 09:00:00 3 11 Oeste 24 Sudoeste 0.4 -- -- 100
2020-10-26 08:00:00 2.4 7 Sudoeste 21 Oeste 0 -- -- 100
2020-10-26 07:00:00 2.2 9 Sudoeste 25 Oeste 0.2 -- -- 100
2020-10-26 06:00:00 1.8 10 Oeste 25 Oeste 0 -- -- 100
2020-10-26 05:00:00 1.6 10 Sudoeste 27 Oeste 0.2 -- -- 100
2020-10-26 04:00:00 1.6 11 Oeste 24 Oeste 0.2 -- -- 100
2020-10-26 03:00:00 1.5 9 Sudoeste 27 Oeste 0 -- -- 100
2020-10-26 02:00:00 1.8 11 Sudoeste 24 Sudoeste 0.2 -- -- 100
2020-10-26 01:00:00 1.9 10 Sudoeste 28 Oeste 0.8 -- -- 100
2020-10-26 00:00:00 2.5 8 Sur 24 Sudoeste 0.6 -- -- 100